Airfield :
LOGIN :

Register | Disclaimer

   EN    FR    IT 

 










Legend :    VFR   Marginal VFR   IFR   Intensive IFR   Very Intensive IFR
Visi :
Ceiling :
>= 8 km
>= 3000ft
5 to 8 km
1000 to 3000 ft
1500m to 5 km
500 to 1000 ft
800 to 1500m
200 to 500 ft
< 800m
< 200 ft
Symbols :   Thunderstorms  Fog  Heavy snow  Heavy precipitations  Wind > 20 kt
SIGMETs :     Misc.  Thunderstorms  Icing  Turbulence  Mountain Waves  Volcanic Ashes






- Airport Elevation : 433 ft
- IATA code : CCF


LFMK - Carcassonne

CURRENT METAR :
  • 261700Z AUTO 32004KT 290V350 2800 RA BR SCT007/// BKN015/// OVC026/// ///TCU 13/11 Q1008 TEMPO 3000 RA BR BKN008 FEW035CB

EXPIRED METARs :
  • 261630Z AUTO 30005KT 270V330 4700 -RA BR BKN009 OVC013 13/12 Q1009 TEMPO BKN008 FEW035TCU
  • 261600Z AUTO 29007KT 260V320 6000 -RA BKN012 OVC017 13/11 Q1009 TEMPO 4000 RA BR BKN005 FEW035CB
  • 261530Z AUTO 30009KT 260V330 9999 -RADZ SCT015 BKN022 OVC029 13/11 Q1010 TEMPO 4000 RA BR BKN005 FEW035CB
  • 261500Z AUTO 29010KT 9999 SCT033/// BKN042/// BKN048/// ///TCU 14/11 Q1010 BECMG BKN014
  • 261430Z AUTO 30015KT 9000 -RA FEW018/// SCT024/// BKN030/// ///TCU 13/11 Q1011 TEMPO VRB03KT 2000 BR BKN005 FEW035CB

TAF AMD TAF LFMK
Valid from the 26 at 16:00 until the 27 at 15:00 UTC


261639Z 2616/2715 30010KT 9999 BKN015 BKN030
TEMPO 2616/2621 VRB03KT 3000 RA BR BKN008 FEW035CB
BECMG 2700/2702 29015G25KT
TEMPO 2700/2709 BKN008
TEMPO 2709/2715 28020G35KT



MET'MAP, your aeronautical weather chart ! - Copyright ORBIFLY December 2007 - Disclaimer

ORBIFLY MET'MAP TEAM :

Programming & Development : Alexandra Zaïnal
Concept & original design : Baudouin d'Aumeries
Assistance for programming : Marc-Olivier Méhu
Technical & hardware support : Manuel Goepfert

Contact : metmap@orbifly.com




SOURCES & CREDITS :

   NOAA